Aérodrome :
LOGIN :

S'inscrire | Disclaimer

   EN    FR    IT 

 










Légende :    VFR   VFR Marginal   IFR   IFR Intensif   IFR Très Intensif
Visi : 
Plafond : 
>= 8 km
>= 3000ft
5 à 8 km
1000 à 3000 ft
1500m à 5 km
500 à 1000 ft
800 à 1500m
200 à 500 ft
< 800m
< 200 ft
Symboles :   Orages  Brouillard  Fortes neiges  Fortes précipitations  Vent > 20 kt
SIGMETs :   Divers  Orages  Givrage  Turbulence  Onde Orograph.  Cendres Volcan.






- Altitude de l'aérodrome : 681 ft
- Code IATA : LBA


EGNM - Leeds Bradford

DERNIER METAR :
  • 270320Z 21010KT 9999 SCT014 05/03 Q0998

METARs EXPIRÉS :
  • 270250Z 21011KT 9999 BKN017 06/03 Q0998
  • 270220Z 14005KT 9999 -SHRA BKN020 05/03 Q0998
  • 270150Z VRB03KT 9999 -SHRA FEW014 SCT020 04/03 Q0999
  • 270120Z 14005KT 110V180 9999 SCT018 04/03 Q0999
  • 270050Z 19010KT 9999 FEW014 04/02 Q0999

TAF TAF EGNM
Valide du 27 à 00h jusqu'au 28 à 00h UTC


262258Z 2700/2724 20005KT 9999 SCT016
PROB30
TEMPO 2702/2708 20015G25KT 7000 SHRA BKN008
PROB30
TEMPO 2712/2718 7000 SHRA BKN010
TEMPO 2722/2724 6000 RA BKN004
ATIS : +44 113 250 9696 (x2489)



MET'MAP, la Météo Aéronautique d'un coup d'oeil ! - Copyright ORBIFLY Décembre 2007 - Disclaimer

ORBIFLY MET'MAP TEAM :

Programmation & Développement : Alexandra Zaïnal
Sur une idée originale de : Baudouin d'Aumeries
Assistance à la programmation : Marc-Olivier Méhu
Soutien technique & logistique : Manuel Goepfert

Contact : metmap@orbifly.com




SOURCES & CREDITS :

   NOAA